Time;durP1;ratioP1;P1;durP2;ratioP2;P2;SDS_P1;SDS_P2;PMS_P1;PMS_P2;Temp;Humidity;BMP_temperature;BMP_pressure;BME280_temperature;BME280_humidity;BME280_pressure;Samples;Min_cycle;Max_cycle;Signal;HPM_P1;HPM_P2
2021/10/08 00:01:16;;;;;;;5.88;5.40;;;;;;;11.99;95.30;103370.34;6366590;28;20191;-71
2021/10/08 00:04:22;;;;;;;6.32;5.75;;;;;;;12.04;94.15;103367.97;6364973;28;20556;-71
2021/10/08 00:07:26;;;;;;;12.32;5.50;;;;;;;12.06;94.46;103376.88;6366050;28;20189;-71
2021/10/08 00:10:30;;;;;;;6.75;5.53;;;;;;;11.90;94.86;103371.31;6366004;28;20182;-71
2021/10/08 00:13:34;;;;;;;7.78;5.47;;;;;;;11.85;95.81;103379.16;6366265;28;20182;-71
2021/10/08 00:16:42;;;;;;;5.38;4.97;;;;;;;11.92;95.09;103372.00;6366201;28;20194;-71
2021/10/08 00:19:49;;;;;;;6.75;4.93;;;;;;;11.76;96.27;103388.38;6365848;28;20182;-71
2021/10/08 00:22:53;;;;;;;8.48;5.55;;;;;;;11.78;96.75;103373.50;6365301;28;20189;-71
2021/10/08 00:25:58;;;;;;;5.47;5.00;;;;;;;11.80;96.39;103376.06;6365968;28;20205;-71
2021/10/08 00:29:02;;;;;;;6.50;5.38;;;;;;;11.78;96.57;103378.97;6365596;28;20217;-71
2021/10/08 00:32:06;;;;;;;5.35;5.15;;;;;;;11.81;96.35;103383.28;6364452;28;20530;-71
2021/10/08 00:35:14;;;;;;;7.13;5.82;;;;;;;11.83;96.52;103373.88;6365395;28;20231;-71
2021/10/08 00:38:18;;;;;;;5.93;5.32;;;;;;;11.80;96.05;103382.41;6363373;28;20233;-71
2021/10/08 00:41:23;;;;;;;6.30;5.90;;;;;;;11.81;96.56;103383.28;6363337;28;20233;-71
2021/10/08 00:44:29;;;;;;;5.93;5.47;;;;;;;11.68;96.87;103378.25;6365570;28;20189;-71
2021/10/08 00:47:33;;;;;;;8.20;5.88;;;;;;;11.59;97.81;103383.78;6363069;28;20293;-71
2021/10/08 00:50:41;;;;;;;6.28;5.65;;;;;;;11.72;96.99;103389.69;6364135;28;20299;-71
2021/10/08 00:53:46;;;;;;;7.45;5.45;;;;;;;11.68;96.89;103388.28;6362928;28;20363;-71
2021/10/08 00:56:50;;;;;;;5.78;5.20;;;;;;;11.69;97.12;103390.03;6362926;28;20209;-71
2021/10/08 00:59:54;;;;;;;6.13;5.65;;;;;;;11.69;96.61;103398.22;6363852;28;20470;-71
2021/10/08 01:02:58;;;;;;;6.32;5.32;;;;;;;11.60;97.42;103389.09;6365202;28;20290;-71
2021/10/08 01:06:04;;;;;;;6.05;5.65;;;;;;;11.59;97.16;103383.78;6364245;28;20217;-71
2021/10/08 01:09:08;;;;;;;6.00;5.47;;;;;;;11.66;96.83;103384.84;6364829;28;20249;-71
2021/10/08 01:12:12;;;;;;;5.78;5.50;;;;;;;11.73;96.00;103385.97;6363359;28;20241;-71
2021/10/08 01:15:17;;;;;;;5.18;4.82;;;;;;;11.69;96.22;103392.75;6363301;28;20209;-71
2021/10/08 01:18:27;;;;;;;10.75;5.78;;;;;;;11.64;96.03;103392.34;6363263;28;20198;-71
2021/10/08 01:21:35;;;;;;;6.25;5.65;;;;;;;11.57;96.03;103385.81;6362668;28;20424;-71
2021/10/08 01:24:42;;;;;;;5.90;5.32;;;;;;;11.68;96.11;103394.66;6362832;28;20205;-70
2021/10/08 01:27:48;;;;;;;5.35;5.13;;;;;;;11.57;96.05;103391.28;6362645;28;20263;-71
2021/10/08 01:31:02;;;;;;;6.43;5.43;;;;;;;11.56;96.31;103389.56;6362023;28;20512;-70
2021/10/08 01:34:23;;;;;;;7.38;5.95;;;;;;;11.49;96.56;103393.97;6361948;28;20198;-70
2021/10/08 01:37:33;;;;;;;7.05;5.63;;;;;;;11.51;96.54;103386.47;6362750;28;20277;-70
2021/10/08 01:40:38;;;;;;;6.03;5.47;;;;;;;11.41;96.30;103391.19;6380719;27;20288;-70
2021/10/08 01:43:50;;;;;;;5.93;5.47;;;;;;;11.38;97.14;103397.84;6370486;27;20255;-70
2021/10/08 01:46:54;;;;;;;7.70;5.72;;;;;;;11.37;97.37;103393.41;6370536;27;20576;-70
2021/10/08 01:50:06;;;;;;;6.00;5.40;;;;;;;11.24;97.98;103385.63;6369844;27;20204;-70
2021/10/08 01:53:16;;;;;;;7.00;5.75;;;;;;;11.28;97.99;103376.09;6370291;27;20205;-70
2021/10/08 01:56:23;;;;;;;6.30;5.63;;;;;;;11.42;97.53;103379.25;6370136;27;20544;-71
2021/10/08 01:59:34;;;;;;;6.40;5.90;;;;;;;11.37;97.39;103378.88;6404268;27;20413;-71
2021/10/08 02:02:42;;;;;;;5.78;5.47;;;;;;;11.43;97.02;103378.25;6370767;27;20197;-71
2021/10/08 02:05:55;;;;;;;5.63;5.25;;;;;;;11.36;97.26;103371.69;6370045;27;20249;-71
2021/10/08 02:09:02;;;;;;;5.30;5.00;;;;;;;11.38;96.99;103383.31;6404315;27;20291;-71
2021/10/08 02:12:10;;;;;;;5.80;5.50;;;;;;;11.33;97.33;103390.13;6369841;27;20197;-71
2021/10/08 02:15:15;;;;;;;6.15;5.60;;;;;;;11.21;97.79;103388.69;6370156;27;20197;-71
2021/10/08 02:18:20;;;;;;;6.55;5.45;;;;;;;11.27;97.89;103385.28;6370179;27;20239;-71
2021/10/08 02:21:26;;;;;;;10.57;5.82;;;;;;;11.31;97.41;103381.22;6370246;27;20197;-71
2021/10/08 02:24:32;;;;;;;5.72;5.38;;;;;;;11.36;97.35;103382.63;6403867;27;20422;-71
2021/10/08 02:27:37;;;;;;;11.10;5.97;;;;;;;11.22;97.51;103387.63;6369312;27;20227;-71
2021/10/08 02:30:43;;;;;;;5.80;5.53;;;;;;;11.10;98.24;103391.66;6369945;27;20273;-71
2021/10/08 02:33:48;;;;;;;6.88;6.20;;;;;;;11.00;99.24;103392.75;6370263;27;20197;-71
2021/10/08 02:36:53;;;;;;;6.07;5.57;;;;;;;11.11;98.41;103407.06;6363495;27;20202;-71
2021/10/08 02:39:58;;;;;;;5.93;5.40;;;;;;;11.18;98.24;103402.66;6347006;28;20232;-71
2021/10/08 02:43:03;;;;;;;6.25;5.63;;;;;;;10.96;99.00;103402.31;6369321;28;20204;-71
2021/10/08 02:46:09;;;;;;;5.93;5.60;;;;;;;11.17;97.88;103411.84;6374725;27;20241;-71
2021/10/08 02:49:21;;;;;;;11.60;6.00;;;;;;;11.41;95.81;103413.06;6395892;27;20234;-71
2021/10/08 02:52:25;;;;;;;6.70;5.80;;;;;;;11.27;96.25;103415.34;6396529;27;20203;-71
2021/10/08 02:55:43;;;;;;;6.13;5.60;;;;;;;11.12;97.28;103413.34;6412200;27;20445;-71
2021/10/08 02:58:47;;;;;;;7.00;6.40;;;;;;;11.09;97.46;103419.97;6396681;27;20185;-71
2021/10/08 03:01:52;;;;;;;9.57;6.35;;;;;;;11.03;98.15;103420.63;6412556;27;20208;-71
2021/10/08 03:04:56;;;;;;;6.53;5.90;;;;;;;11.00;98.23;103431.88;6395744;27;20188;-71
2021/10/08 03:08:00;;;;;;;8.85;6.45;;;;;;;10.98;98.52;103425.72;6412382;27;20228;-71
2021/10/08 03:11:08;;;;;;;6.32;5.82;;;;;;;10.84;99.50;103426.25;6378233;27;20197;-71
2021/10/08 03:14:13;;;;;;;6.78;5.78;;;;;;;11.00;99.20;103431.88;6378425;27;20232;-71
2021/10/08 03:17:18;;;;;;;6.80;6.20;;;;;;;10.97;98.88;103432.19;6376921;27;20201;-71
2021/10/08 03:20:23;;;;;;;6.28;5.68;;;;;;;10.89;98.81;103429.38;6377319;27;20204;-71
2021/10/08 03:23:28;;;;;;;7.03;6.43;;;;;;;10.93;98.69;103433.53;6377581;27;20245;-71
2021/10/08 03:26:34;;;;;;;6.90;6.18;;;;;;;10.86;99.54;103429.69;6377045;27;20264;-71
2021/10/08 03:29:38;;;;;;;6.10;5.72;;;;;;;10.87;99.23;103431.41;6377797;27;20205;-71
2021/10/08 03:32:43;;;;;;;6.78;6.18;;;;;;;10.88;99.11;103441.34;6412432;27;20279;-71
2021/10/08 03:35:47;;;;;;;6.32;5.75;;;;;;;10.94;99.00;103437.94;6378230;27;20197;-71
2021/10/08 03:38:52;;;;;;;6.50;6.00;;;;;;;10.85;99.05;103433.44;6411736;27;20275;-71
2021/10/08 03:41:57;;;;;;;8.40;6.10;;;;;;;10.90;99.12;103424.78;6396733;27;20249;-71
2021/10/08 03:45:09;;;;;;;10.75;6.07;;;;;;;10.89;99.23;103426.63;6377376;27;20254;-71
2021/10/08 03:51:37;;;;;;;6.25;5.85;;;;;;;10.78;99.98;103432.38;6364673;27;20201;-71
2021/10/08 03:54:41;;;;;;;7.20;5.68;;;;;;;10.93;98.73;103430.78;6377511;27;20197;-71
2021/10/08 03:57:47;;;;;;;6.50;5.90;;;;;;;10.96;99.08;103441.41;6408608;27;20208;-71
2021/10/08 04:00:51;;;;;;;6.65;6.10;;;;;;;10.97;98.46;103442.25;6372594;27;20197;-71
2021/10/08 04:03:58;;;;;;;6.10;5.65;;;;;;;10.85;99.45;103443.50;6373930;27;20232;-71
2021/10/08 04:07:03;;;;;;;6.32;5.65;;;;;;;10.93;98.51;103441.72;6372774;27;20221;-71
2021/10/08 04:10:08;;;;;;;6.72;6.22;;;;;;;10.89;98.50;103439.47;6372924;27;20205;-71
2021/10/08 04:13:15;;;;;;;6.22;5.72;;;;;;;10.84;98.77;103445.38;6372858;27;20201;-71
2021/10/08 04:16:20;;;;;;;6.68;6.18;;;;;;;10.75;99.54;103454.50;6407134;27;20204;-71
2021/10/08 04:19:24;;;;;;;9.25;6.43;;;;;;;10.73;99.34;103451.09;6373390;27;20208;-71
2021/10/08 04:22:29;;;;;;;8.30;6.40;;;;;;;10.73;99.55;103451.09;6406498;27;20508;-71
2021/10/08 04:25:38;;;;;;;6.85;6.32;;;;;;;10.82;99.04;103449.28;6372591;27;20197;-71
2021/10/08 04:28:44;;;;;;;9.32;5.93;;;;;;;10.96;98.23;103457.81;6372846;27;20284;-71
2021/10/08 04:31:50;;;;;;;12.07;6.22;;;;;;;11.03;97.55;103452.56;6372731;27;20197;-71
2021/10/08 04:34:56;;;;;;;7.10;6.40;;;;;;;11.01;97.18;103455.47;6406443;27;20197;-71
2021/10/08 04:38:02;;;;;;;6.63;6.13;;;;;;;10.93;97.51;103458.13;6372658;27;20212;-72
2021/10/08 04:41:07;;;;;;;8.02;6.32;;;;;;;11.13;96.47;103459.66;6389942;27;20580;-71
2021/10/08 04:44:15;;;;;;;6.57;6.00;;;;;;;10.98;97.00;103465.84;6372944;27;20201;-71
2021/10/08 04:47:21;;;;;;;6.50;5.90;;;;;;;10.98;97.35;103466.69;6372000;27;20574;-71
2021/10/08 04:50:25;;;;;;;6.10;5.60;;;;;;;10.98;96.77;103465.84;6390209;27;20348;-71
2021/10/08 04:53:30;;;;;;;7.03;6.13;;;;;;;11.03;96.54;103468.94;6391129;27;20185;-71
2021/10/08 04:56:35;;;;;;;6.22;5.70;;;;;;;10.98;97.00;103477.63;6371528;27;20202;-71
2021/10/08 04:59:43;;;;;;;6.90;6.18;;;;;;;10.83;97.24;103468.25;6372376;27;20258;-71
2021/10/08 05:02:47;;;;;;;6.45;6.03;;;;;;;10.78;98.26;103470.59;6389293;27;20188;-71
2021/10/08 05:05:52;;;;;;;6.53;6.03;;;;;;;11.02;96.67;103462.63;6389786;27;20234;-71
2021/10/08 05:09:02;;;;;;;6.13;5.53;;;;;;;11.02;95.67;103468.09;6369860;27;20258;-71
2021/10/08 05:12:08;;;;;;;6.15;5.47;;;;;;;11.13;94.29;103470.59;6405972;27;20197;-71
2021/10/08 05:15:14;;;;;;;5.57;5.28;;;;;;;11.04;93.94;103466.03;6371125;27;20205;-71
2021/10/08 05:18:19;;;;;;;5.10;4.72;;;;;;;10.89;95.26;103472.25;6390118;27;20185;-71
2021/10/08 05:21:23;;;;;;;6.82;4.70;;;;;;;10.84;95.17;103464.50;6370895;27;20197;-71
2021/10/08 05:24:28;;;;;;;4.90;4.50;;;;;;;10.83;95.37;103462.78;6371656;27;20204;-71
2021/10/08 05:27:34;;;;;;;4.63;4.45;;;;;;;10.80;95.05;103474.03;6371550;27;20304;-71
2021/10/08 05:30:40;;;;;;;4.68;4.47;;;;;;;10.92;93.76;103483.69;6371528;27;20197;-71
2021/10/08 05:33:45;;;;;;;6.93;4.43;;;;;;;10.87;94.50;103486.03;6370745;27;20264;-70
2021/10/08 05:36:50;;;;;;;7.05;4.65;;;;;;;10.78;95.64;103483.38;6384472;27;20248;-70
2021/10/08 05:39:57;;;;;;;5.97;4.63;;;;;;;10.78;96.03;103497.91;6360125;27;20225;-70
2021/10/08 05:43:02;;;;;;;4.93;4.57;;;;;;;10.84;96.24;103494.53;6370528;27;20420;-70
2021/10/08 05:46:11;;;;;;;6.45;4.22;;;;;;;10.74;97.63;103495.63;6370876;27;20202;-70
2021/10/08 05:49:17;;;;;;;5.05;4.65;;;;;;;10.84;97.29;103497.28;6370041;27;20228;-71
2021/10/08 05:52:21;;;;;;;4.65;4.35;;;;;;;10.86;97.66;103506.16;6370598;27;20276;-70
2021/10/08 05:55:26;;;;;;;4.85;4.57;;;;;;;10.86;98.02;103503.44;6369750;27;20197;-70
2021/10/08 05:58:32;;;;;;;4.57;4.18;;;;;;;10.96;98.25;103512.44;6370142;27;20209;-70
2021/10/08 06:01:37;;;;;;;4.60;4.30;;;;;;;10.79;99.51;103516.00;6389165;27;20193;-70
2021/10/08 06:04:42;;;;;;;5.20;4.80;;;;;;;10.66;100.00;103526.41;6387967;27;20181;-70
2021/10/08 06:07:46;;;;;;;6.10;4.40;;;;;;;10.59;100.00;103530.78;6370573;27;20228;-70
2021/10/08 06:10:51;;;;;;;8.77;4.55;;;;;;;10.57;100.00;103527.34;6369696;27;20380;-71
2021/10/08 06:13:57;;;;;;;5.20;4.65;;;;;;;10.58;100.00;103529.06;6370765;27;20228;-70
2021/10/08 06:17:05;;;;;;;5.13;4.70;;;;;;;10.66;100.00;103531.88;6387578;27;20208;-71
2021/10/08 06:20:12;;;;;;;6.28;5.03;;;;;;;10.58;100.00;103529.06;6369733;27;20208;-70
2021/10/08 06:23:18;;;;;;;4.82;4.53;;;;;;;10.79;100.00;103526.91;6370070;27;20203;-71
2021/10/08 06:26:22;;;;;;;6.20;5.35;;;;;;;10.93;100.00;103534.59;6370712;27;20288;-71
2021/10/08 06:29:28;;;;;;;8.55;5.47;;;;;;;11.02;100.00;103528.19;6369645;27;20301;-71
2021/10/08 06:32:33;;;;;;;6.97;5.30;;;;;;;10.92;100.00;103532.88;6369749;27;20220;-71
2021/10/08 06:35:38;;;;;;;5.93;5.43;;;;;;;10.87;100.00;103524.28;6370160;27;20198;-71
2021/10/08 06:38:44;;;;;;;6.72;6.07;;;;;;;10.79;100.00;103526.91;6369342;27;20224;-71
2021/10/08 06:41:48;;;;;;;5.95;5.35;;;;;;;10.90;100.00;103529.44;6369487;27;20228;-71
2021/10/08 06:44:59;;;;;;;8.88;6.07;;;;;;;10.94;100.00;103530.84;6370155;28;20197;-71
2021/10/08 06:48:06;;;;;;;7.60;6.13;;;;;;;11.09;100.00;103539.38;6368744;28;20222;-71
2021/10/08 06:51:14;;;;;;;8.30;5.97;;;;;;;11.01;100.00;103536.56;6369889;28;20232;-71
2021/10/08 06:54:19;;;;;;;13.15;6.25;;;;;;;11.14;100.00;103543.38;6369637;28;20204;-71
2021/10/08 06:57:27;;;;;;;6.50;5.80;;;;;;;11.16;100.00;103530.41;6369643;28;20241;-71
2021/10/08 07:00:33;;;;;;;9.43;5.93;;;;;;;11.25;100.00;103528.59;6369293;28;20440;-71
2021/10/08 07:03:44;;;;;;;6.95;6.18;;;;;;;11.29;100.00;103543.69;6368881;28;20216;-71
2021/10/08 07:06:50;;;;;;;8.82;6.43;;;;;;;11.32;100.00;103552.41;6369202;28;20265;-71
2021/10/08 07:10:06;;;;;;;6.78;5.93;;;;;;;11.33;100.00;103545.06;6403126;27;20221;-70
2021/10/08 07:13:12;;;;;;;6.97;6.38;;;;;;;11.36;100.00;103546.63;6387807;28;20186;-70
2021/10/08 07:16:17;;;;;;;12.77;6.85;;;;;;;11.45;100.00;103551.16;6388084;28;20182;-71
2021/10/08 07:19:22;;;;;;;7.82;6.70;;;;;;;11.58;100.00;103547.00;6386672;28;20396;-71
2021/10/08 07:22:27;;;;;;;13.90;6.30;;;;;;;11.73;100.00;103550.94;6387943;28;20182;-71
2021/10/08 07:25:31;;;;;;;7.90;6.68;;;;;;;11.78;100.00;103547.72;6387728;28;20267;-71
2021/10/08 07:28:36;;;;;;;7.68;6.22;;;;;;;11.86;100.00;103556.81;6387610;28;20203;-71
2021/10/08 07:31:40;;;;;;;6.70;6.00;;;;;;;11.86;100.00;103545.03;6387760;27;20281;-71
2021/10/08 07:34:45;;;;;;;6.35;5.85;;;;;;;11.74;100.00;103559.97;6392649;27;20213;-70
2021/10/08 07:37:49;;;;;;;9.50;5.88;;;;;;;11.72;100.00;103553.81;6392521;27;20260;-70
2021/10/08 07:40:54;;;;;;;10.35;6.88;;;;;;;11.79;100.00;103555.75;6392393;27;20229;-70
2021/10/08 07:43:58;;;;;;;7.05;6.32;;;;;;;11.77;100.00;103554.19;6392232;27;20188;-71
2021/10/08 07:47:02;;;;;;;7.13;6.43;;;;;;;11.79;100.00;103549.41;6391198;27;20249;-70
2021/10/08 07:50:10;;;;;;;7.32;6.03;;;;;;;11.86;100.00;103547.78;6392312;27;20209;-70
2021/10/08 07:53:14;;;;;;;9.02;6.82;;;;;;;11.96;100.00;103555.88;6392140;27;20187;-71
2021/10/08 07:56:18;;;;;;;6.53;5.93;;;;;;;11.94;100.00;103542.34;6391223;27;20187;-71
2021/10/08 07:59:22;;;;;;;6.63;6.03;;;;;;;12.02;100.00;103545.13;6392144;27;20196;-71
2021/10/08 08:02:28;;;;;;;6.25;5.75;;;;;;;12.12;100.00;103550.50;6390863;27;20221;-70
2021/10/08 08:05:34;;;;;;;7.25;6.20;;;;;;;11.98;100.00;103560.16;6390613;27;20182;-71
2021/10/08 08:08:38;;;;;;;6.60;6.10;;;;;;;12.05;100.00;103557.63;6390784;27;20218;-71
2021/10/08 08:11:42;;;;;;;6.70;5.97;;;;;;;12.11;100.00;103549.66;6391275;27;20217;-71
2021/10/08 08:14:46;;;;;;;6.22;5.82;;;;;;;12.07;100.00;103558.34;6391013;27;20541;-71
2021/10/08 08:17:51;;;;;;;7.25;5.95;;;;;;;12.07;100.00;103559.19;6391652;27;20181;-71
2021/10/08 08:20:57;;;;;;;6.03;5.53;;;;;;;12.07;100.00;103548.25;6391637;27;20191;-71
2021/10/08 08:24:01;;;;;;;5.88;5.07;;;;;;;12.22;100.00;103552.09;6391617;27;20188;-71
2021/10/08 08:27:05;;;;;;;5.85;5.30;;;;;;;12.21;100.00;103555.88;6390078;27;20188;-71
2021/10/08 08:30:11;;;;;;;5.85;5.32;;;;;;;12.25;100.00;103557.25;6389985;27;20407;-71
2021/10/08 08:33:17;;;;;;;8.65;4.97;;;;;;;12.35;99.59;103549.78;6389867;27;20369;-71
2021/10/08 08:36:23;;;;;;;4.70;4.40;;;;;;;12.36;98.35;103556.97;6389963;27;20545;-70
2021/10/08 08:39:27;;;;;;;5.28;4.47;;;;;;;12.45;97.72;103555.97;6389948;27;20273;-71
2021/10/08 08:42:31;;;;;;;6.05;4.40;;;;;;;12.49;97.13;103549.16;6390206;27;20182;-71
2021/10/08 08:45:35;;;;;;;5.35;4.25;;;;;;;12.55;96.66;103548.53;6390633;27;20186;-71
2021/10/08 08:48:41;;;;;;;4.43;4.00;;;;;;;12.54;97.49;103549.53;6390868;27;20186;-71
2021/10/08 08:51:46;;;;;;;4.97;4.50;;;;;;;12.52;97.09;103543.38;6389408;27;20209;-71
2021/10/08 08:54:53;;;;;;;4.35;4.15;;;;;;;12.58;95.86;103547.34;6390448;27;20186;-71
2021/10/08 08:57:57;;;;;;;4.55;4.20;;;;;;;12.64;94.41;103551.25;6389441;27;20204;-71
2021/10/08 09:01:04;;;;;;;4.72;4.43;;;;;;;12.70;93.65;103545.13;6389245;27;20469;-71
2021/10/08 09:04:11;;;;;;;4.60;4.30;;;;;;;12.79;92.18;103555.13;6390009;27;20213;-71
2021/10/08 09:07:17;;;;;;;4.40;4.10;;;;;;;12.75;93.56;103545.50;6390930;27;20182;-71
2021/10/08 09:10:24;;;;;;;4.25;3.83;;;;;;;12.80;93.47;103541.25;6389753;27;20213;-72
2021/10/08 09:13:29;;;;;;;3.67;3.40;;;;;;;12.79;92.70;103544.16;6390340;27;20192;-72
2021/10/08 09:16:33;;;;;;;9.85;3.63;;;;;;;12.91;92.50;103540.94;6389508;27;20235;-72
2021/10/08 09:19:55;;;;;;;3.97;3.78;;;;;;;13.00;91.54;103541.78;6390172;27;20182;-72
2021/10/08 09:23:01;;;;;;;4.40;4.10;;;;;;;13.00;91.87;103530.84;6389673;27;20245;-71
2021/10/08 09:26:14;;;;;;;5.78;3.42;;;;;;;13.06;90.20;103536.56;6389972;27;20244;-71
2021/10/08 09:29:18;;;;;;;4.05;3.60;;;;;;;13.12;90.40;103529.53;6390004;27;20188;-71
2021/10/08 09:32:24;;;;;;;4.60;4.32;;;;;;;13.13;90.38;103525.75;6389531;27;20212;-71
2021/10/08 09:35:28;;;;;;;4.13;3.78;;;;;;;13.18;90.35;103523.38;6389539;27;20182;-71
2021/10/08 09:38:42;;;;;;;6.13;3.60;;;;;;;13.28;89.78;103518.56;6390366;27;20264;-71
2021/10/08 09:41:57;;;;;;;4.50;4.10;;;;;;;13.41;89.11;103524.41;6363516;27;20233;-71
2021/10/08 09:45:03;;;;;;;3.88;3.58;;;;;;;13.44;88.99;103515.84;6363545;28;20182;-71
2021/10/08 09:48:11;;;;;;;3.88;3.78;;;;;;;13.50;89.19;103515.16;6364018;28;20186;-71
2021/10/08 09:51:17;;;;;;;3.67;3.40;;;;;;;13.57;89.09;103513.44;6362370;28;20238;-71
2021/10/08 09:54:22;;;;;;;4.00;3.70;;;;;;;13.64;88.08;103525.44;6363191;28;20189;-71
2021/10/08 09:57:28;;;;;;;4.78;3.95;;;;;;;13.69;88.38;103517.53;6362328;28;20583;-71
2021/10/08 10:00:40;;;;;;;3.33;3.20;;;;;;;13.79;87.89;103518.22;6363209;28;20246;-72
2021/10/08 10:03:51;;;;;;;3.60;3.30;;;;;;;13.84;88.42;103519.59;6363670;28;20190;-72
2021/10/08 10:06:55;;;;;;;3.80;3.50;;;;;;;13.82;88.63;103506.88;6363343;28;20251;-72
2021/10/08 10:10:01;;;;;;;3.92;3.63;;;;;;;13.88;88.16;103515.47;6363247;28;20217;-71
2021/10/08 10:13:15;;;;;;;3.40;3.30;;;;;;;13.95;88.48;103505.50;6363223;28;20242;-71
2021/10/08 10:16:20;;;;;;;6.57;3.70;;;;;;;13.99;86.72;103509.59;6362939;28;20182;-71
2021/10/08 10:19:25;;;;;;;3.20;2.95;;;;;;;14.11;85.38;103516.44;6361863;28;20378;-73
2021/10/08 10:22:33;;;;;;;3.22;3.10;;;;;;;14.20;83.89;103504.41;6362132;28;20575;-72
2021/10/08 10:25:40;;;;;;;3.08;2.67;;;;;;;14.20;82.85;103505.25;6362003;28;20228;-70
2021/10/08 10:28:44;;;;;;;3.30;2.50;;;;;;;14.28;79.25;103507.09;6362734;28;20182;-71
2021/10/08 10:31:50;;;;;;;7.03;2.60;;;;;;;14.27;79.57;103505.41;6361743;28;20251;-70
2021/10/08 10:34:54;;;;;;;3.38;2.40;;;;;;;14.27;80.51;103505.41;6362880;28;20182;-70
2021/10/08 10:37:58;;;;;;;2.40;2.30;;;;;;;14.35;78.32;103502.66;6362320;28;20476;-70
2021/10/08 10:41:28;;;;;;;8.20;2.30;;;;;;;14.43;77.25;103500.72;6361977;28;20265;-70
2021/10/08 10:44:36;;;;;;;2.67;2.58;;;;;;;14.53;76.56;103500.53;6361052;28;20474;-70
2021/10/08 10:47:42;;;;;;;4.13;2.63;;;;;;;14.65;76.72;103488.09;6361200;28;20478;-70
2021/10/08 10:51:10;;;;;;;2.95;2.75;;;;;;;14.67;76.21;103502.50;6362541;28;20197;-70
2021/10/08 10:54:14;;;;;;;2.80;2.60;;;;;;;14.75;77.06;103488.72;6361622;28;20182;-71
2021/10/08 10:58:06;;;;;;;2.95;2.75;;;;;;;14.75;77.10;103488.72;6361938;28;20217;-71
2021/10/08 11:01:12;;;;;;;4.85;2.67;;;;;;;14.80;77.79;103475.28;6361903;28;20273;-71
2021/10/08 11:04:28;;;;;;;4.20;2.70;;;;;;;14.85;78.20;103482.97;6362645;28;20272;-71
2021/10/08 11:07:32;;;;;;;2.70;2.60;;;;;;;14.87;77.58;103487.25;6364899;28;20419;-71
2021/10/08 11:10:38;;;;;;;4.70;2.90;;;;;;;14.91;77.58;103494.13;6366635;27;20410;-72
2021/10/08 11:13:46;;;;;;;3.28;2.97;;;;;;;15.00;77.32;103482.03;6366593;28;20238;-71
2021/10/08 11:16:52;;;;;;;3.20;2.90;;;;;;;15.14;76.34;103482.28;6367544;27;20198;-71
2021/10/08 11:19:56;;;;;;;3.25;2.90;;;;;;;15.20;77.63;103487.06;6367290;28;20183;-71
2021/10/08 11:23:02;;;;;;;2.70;2.60;;;;;;;15.19;76.87;103479.81;6367377;28;20186;-72
2021/10/08 11:26:10;;;;;;;3.83;3.00;;;;;;;15.26;76.31;103489.03;6367082;28;20193;-72
2021/10/08 11:29:14;;;;;;;2.88;2.67;;;;;;;15.25;77.27;103481.84;6367358;28;20245;-72
2021/10/08 11:32:20;;;;;;;3.40;3.08;;;;;;;15.26;77.48;103480.78;6365689;28;20214;-71
2021/10/08 11:35:30;;;;;;;4.15;3.10;;;;;;;15.35;76.24;103482.44;6365987;28;20186;-71
2021/10/08 11:38:34;;;;;;;4.47;2.80;;;;;;;15.36;77.55;103492.41;6366436;28;20313;-72
2021/10/08 11:41:41;;;;;;;3.75;2.78;;;;;;;15.40;75.26;103488.25;6366855;28;20230;-72
2021/10/08 11:44:59;;;;;;;3.70;2.22;;;;;;;15.46;71.52;103482.03;6366695;28;20186;-71
2021/10/08 11:48:11;;;;;;;2.08;1.98;;;;;;;15.45;69.71;103480.28;6365568;28;20478;-71
2021/10/08 11:51:16;;;;;;;2.00;1.85;;;;;;;15.57;66.27;103476.09;6365227;28;20431;-71
2021/10/08 11:54:20;;;;;;;2.08;1.67;;;;;;;15.55;66.64;103469.91;6366340;28;20291;-71
2021/10/08 11:57:24;;;;;;;2.50;2.05;;;;;;;15.62;66.62;103476.38;6365020;28;20430;-71
2021/10/08 12:00:36;;;;;;;3.20;2.00;;;;;;;15.71;68.17;103480.78;6366437;28;20245;-71
2021/10/08 12:03:42;;;;;;;2.05;1.90;;;;;;;15.70;67.93;103470.78;6365438;28;20249;-72
2021/10/08 12:06:46;;;;;;;2.08;1.98;;;;;;;15.76;67.62;103478.31;6366194;28;20182;-73
2021/10/08 12:10:08;;;;;;;1.60;1.50;;;;;;;15.81;66.66;103470.34;6366393;28;20257;-72
2021/10/08 12:13:15;;;;;;;2.00;1.80;;;;;;;15.80;68.17;103471.38;6364715;28;20473;-71
2021/10/08 12:16:20;;;;;;;2.38;1.90;;;;;;;15.88;66.68;103468.53;6365790;28;20183;-72
2021/10/08 12:19:30;;;;;;;2.60;1.45;;;;;;;15.88;66.83;103468.53;6365155;28;20183;-71
2021/10/08 12:22:36;;;;;;;2.08;1.85;;;;;;;15.88;65.39;103467.69;6364799;28;20350;-72
2021/10/08 12:25:41;;;;;;;3.90;1.80;;;;;;;15.87;64.28;103469.56;6365548;28;20214;-72
2021/10/08 12:28:49;;;;;;;1.88;1.77;;;;;;;15.85;64.81;103471.66;6365557;28;20227;-72
2021/10/08 12:31:56;;;;;;;3.40;1.90;;;;;;;15.84;63.83;103475.47;6365501;28;20227;-71
2021/10/08 12:35:13;;;;;;;3.90;1.70;;;;;;;15.88;62.39;103471.28;6365529;28;20213;-71
2021/10/08 12:38:20;;;;;;;5.30;1.50;;;;;;;15.98;63.75;103471.88;6365124;28;20198;-72
2021/10/08 12:41:29;;;;;;;1.92;1.80;;;;;;;15.94;63.74;103476.06;6365021;28;20411;-71
2021/10/08 12:44:36;;;;;;;3.28;1.77;;;;;;;15.98;65.01;103471.88;6365090;28;20193;-71
2021/10/08 12:47:41;;;;;;;5.82;1.90;;;;;;;16.02;65.57;103456.66;6365496;28;20191;-72
2021/10/08 12:50:46;;;;;;;2.10;1.92;;;;;;;16.03;66.39;103457.53;6365316;28;20183;-72
2021/10/08 12:54:16;;;;;;;6.32;1.80;;;;;;;16.01;66.24;103460.47;6363912;28;20501;-74
2021/10/08 12:57:20;;;;;;;6.00;1.83;;;;;;;16.02;67.01;103462.16;6364887;28;20262;-72
2021/10/08 13:00:32;;;;;;;9.32;1.80;;;;;;;16.00;67.33;103464.25;6364780;28;20182;-72
2021/10/08 13:03:38;;;;;;;2.20;1.95;;;;;;;15.96;67.91;103471.22;6365168;28;20193;-71
2021/10/08 13:06:44;;;;;;;3.60;2.08;;;;;;;15.92;67.09;103471.78;6364092;28;20189;-72
2021/10/08 13:10:21;;;;;;;3.10;2.90;;;;;;;15.92;68.22;103466.28;6364630;28;20186;-71
2021/10/08 13:13:28;;;;;;;6.10;2.70;;;;;;;15.89;69.34;103461.13;6363192;28;20206;-72
2021/10/08 13:16:36;;;;;;;4.63;2.10;;;;;;;15.91;70.22;103470.91;6364725;28;20182;-72
2021/10/08 13:19:40;;;;;;;2.45;2.00;;;;;;;15.96;69.96;103457.44;6364710;28;20220;-72
2021/10/08 13:22:45;;;;;;;5.32;3.28;;;;;;;15.93;70.23;103463.31;6364316;28;20255;-72
2021/10/08 13:25:50;;;;;;;2.03;1.92;;;;;;;15.93;69.95;103463.31;6364425;28;20182;-72
2021/10/08 13:28:55;;;;;;;2.22;2.13;;;;;;;15.96;69.40;103462.94;6362529;28;20529;-72
2021/10/08 13:32:00;;;;;;;7.30;1.85;;;;;;;15.99;69.75;103462.56;6363283;28;20249;-72
2021/10/08 13:35:05;;;;;;;2.92;1.88;;;;;;;15.95;68.88;103466.72;6362901;28;20210;-72
2021/10/08 13:38:12;;;;;;;2.42;2.28;;;;;;;16.01;69.29;103470.63;6354922;28;20198;-72
2021/10/08 13:41:16;;;;;;;5.82;2.22;;;;;;;15.95;71.14;103458.47;6364187;28;20226;-72
2021/10/08 13:44:20;;;;;;;5.38;2.00;;;;;;;15.89;71.19;103462.00;6362504;28;20198;-71
2021/10/08 13:47:24;;;;;;;1.98;1.92;;;;;;;15.97;69.58;103469.31;6362495;28;20493;-71
2021/10/08 13:50:28;;;;;;;2.00;1.90;;;;;;;15.88;69.80;103460.28;6363700;28;20280;-71
2021/10/08 13:53:34;;;;;;;2.30;2.10;;;;;;;15.95;69.37;103461.22;6387637;27;20273;-71
2021/10/08 13:56:38;;;;;;;2.38;1.92;;;;;;;15.98;69.32;103454.47;6387811;27;20182;-71
2021/10/08 13:59:42;;;;;;;2.70;2.03;;;;;;;15.92;70.84;103444.25;6388143;27;20226;-71
2021/10/08 14:02:50;;;;;;;2.15;2.10;;;;;;;15.89;70.21;103456.50;6388478;27;20188;-71
2021/10/08 14:06:12;;;;;;;2.33;2.20;;;;;;;15.94;70.54;103459.53;6388846;27;20215;-71
2021/10/08 14:10:15;;;;;;;2.03;1.85;;;;;;;15.85;71.45;103460.66;6388838;27;20295;-71
2021/10/08 14:12:46;;;;;;;3.55;2.30;;;;;;;15.86;72.03;103456.88;6388525;27;20197;-71
2021/10/08 14:15:50;;;;;;;5.38;2.17;;;;;;;15.87;72.76;103458.56;6388040;27;20223;-71
2021/10/08 14:18:54;;;;;;;2.22;2.13;;;;;;;15.78;72.85;103454.19;6388307;27;20189;-72
2021/10/08 14:21:59;;;;;;;2.80;2.60;;;;;;;15.64;73.15;103457.78;6387899;27;20185;-72
2021/10/08 14:25:06;;;;;;;4.22;2.20;;;;;;;15.68;73.11;103448.13;6388564;27;20185;-71
2021/10/08 14:28:13;;;;;;;2.25;2.20;;;;;;;15.72;73.06;103460.44;6388047;27;20248;-73
2021/10/08 14:31:17;;;;;;;2.05;2.00;;;;;;;15.72;74.06;103448.56;6388175;27;20181;-72